sensor_id;sensor_type;location;lat;lon;timestamp;P1;durP1;ratioP1;P2;durP2;ratioP2
3299;SDS011;1662;49.310;8.134;2024-03-07T00:00:34;33.87;;;22.20;;
3299;SDS011;1662;49.310;8.134;2024-03-07T00:03:00;37.73;;;22.67;;
3299;SDS011;1662;49.310;8.134;2024-03-07T00:05:26;37.67;;;24.43;;
3299;SDS011;1662;49.310;8.134;2024-03-07T00:07:52;42.53;;;26.00;;
3299;SDS011;1662;49.310;8.134;2024-03-07T00:10:18;44.97;;;25.87;;
3299;SDS011;1662;49.310;8.134;2024-03-07T00:12:43;37.00;;;23.30;;
3299;SDS011;1662;49.310;8.134;2024-03-07T00:15:12;41.63;;;25.80;;
3299;SDS011;1662;49.310;8.134;2024-03-07T00:17:38;41.67;;;24.83;;
3299;SDS011;1662;49.310;8.134;2024-03-07T00:20:07;37.87;;;22.70;;
3299;SDS011;1662;49.310;8.134;2024-03-07T00:22:35;41.87;;;24.07;;
3299;SDS011;1662;49.310;8.134;2024-03-07T00:25:01;40.27;;;24.27;;
3299;SDS011;1662;49.310;8.134;2024-03-07T00:27:29;40.17;;;25.60;;
3299;SDS011;1662;49.310;8.134;2024-03-07T00:29:55;46.90;;;29.00;;
3299;SDS011;1662;49.310;8.134;2024-03-07T00:32:22;41.87;;;26.53;;
3299;SDS011;1662;49.310;8.134;2024-03-07T00:34:50;39.93;;;25.27;;
3299;SDS011;1662;49.310;8.134;2024-03-07T00:37:16;43.63;;;27.00;;
3299;SDS011;1662;49.310;8.134;2024-03-07T00:39:42;45.23;;;27.57;;
3299;SDS011;1662;49.310;8.134;2024-03-07T00:42:08;51.60;;;29.03;;
3299;SDS011;1662;49.310;8.134;2024-03-07T00:44:34;49.23;;;28.03;;
3299;SDS011;1662;49.310;8.134;2024-03-07T00:47:00;39.40;;;24.60;;
3299;SDS011;1662;49.310;8.134;2024-03-07T00:49:29;42.13;;;25.97;;
3299;SDS011;1662;49.310;8.134;2024-03-07T00:51:55;42.10;;;26.33;;
3299;SDS011;1662;49.310;8.134;2024-03-07T00:54:22;37.30;;;25.27;;
3299;SDS011;1662;49.310;8.134;2024-03-07T00:56:55;37.90;;;25.30;;
3299;SDS011;1662;49.310;8.134;2024-03-07T00:59:20;43.03;;;27.23;;
3299;SDS011;1662;49.310;8.134;2024-03-07T01:01:46;41.17;;;24.30;;
3299;SDS011;1662;49.310;8.134;2024-03-07T01:04:11;42.13;;;25.00;;
3299;SDS011;1662;49.310;8.134;2024-03-07T01:06:40;36.77;;;25.47;;
3299;SDS011;1662;49.310;8.134;2024-03-07T01:09:06;46.00;;;26.07;;
3299;SDS011;1662;49.310;8.134;2024-03-07T01:11:39;40.47;;;26.60;;
3299;SDS011;1662;49.310;8.134;2024-03-07T01:14:11;40.40;;;25.30;;
3299;SDS011;1662;49.310;8.134;2024-03-07T01:16:36;39.83;;;24.90;;
3299;SDS011;1662;49.310;8.134;2024-03-07T01:19:02;43.20;;;26.23;;
3299;SDS011;1662;49.310;8.134;2024-03-07T01:21:31;43.13;;;27.23;;
3299;SDS011;1662;49.310;8.134;2024-03-07T01:24:05;39.53;;;26.10;;
3299;SDS011;1662;49.310;8.134;2024-03-07T01:26:30;43.90;;;28.20;;
3299;SDS011;1662;49.310;8.134;2024-03-07T01:29:01;40.13;;;25.80;;
3299;SDS011;1662;49.310;8.134;2024-03-07T01:31:26;45.33;;;27.00;;
3299;SDS011;1662;49.310;8.134;2024-03-07T01:33:52;44.07;;;27.30;;
3299;SDS011;1662;49.310;8.134;2024-03-07T01:36:20;43.77;;;28.03;;
3299;SDS011;1662;49.310;8.134;2024-03-07T01:38:46;38.10;;;26.40;;
3299;SDS011;1662;49.310;8.134;2024-03-07T01:41:11;42.60;;;25.30;;
3299;SDS011;1662;49.310;8.134;2024-03-07T01:43:39;43.27;;;27.17;;
3299;SDS011;1662;49.310;8.134;2024-03-07T01:46:08;43.90;;;27.80;;
3299;SDS011;1662;49.310;8.134;2024-03-07T01:48:35;41.40;;;26.93;;
3299;SDS011;1662;49.310;8.134;2024-03-07T01:51:02;50.50;;;31.63;;
3299;SDS011;1662;49.310;8.134;2024-03-07T01:53:29;40.87;;;25.60;;
3299;SDS011;1662;49.310;8.134;2024-03-07T01:55:58;46.20;;;28.33;;
3299;SDS011;1662;49.310;8.134;2024-03-07T01:58:27;43.33;;;26.90;;
3299;SDS011;1662;49.310;8.134;2024-03-07T02:00:55;42.63;;;25.60;;
3299;SDS011;1662;49.310;8.134;2024-03-07T02:03:21;40.00;;;24.80;;
3299;SDS011;1662;49.310;8.134;2024-03-07T02:05:49;49.30;;;27.83;;
3299;SDS011;1662;49.310;8.134;2024-03-07T02:08:15;44.20;;;27.20;;
3299;SDS011;1662;49.310;8.134;2024-03-07T02:10:42;46.08;;;28.23;;
3299;SDS011;1662;49.310;8.134;2024-03-07T02:13:08;43.60;;;27.90;;
3299;SDS011;1662;49.310;8.134;2024-03-07T02:15:33;44.33;;;25.90;;
3299;SDS011;1662;49.310;8.134;2024-03-07T02:17:59;40.80;;;26.50;;
3299;SDS011;1662;49.310;8.134;2024-03-07T02:20:24;43.40;;;26.63;;
3299;SDS011;1662;49.310;8.134;2024-03-07T02:22:53;43.27;;;26.27;;
3299;SDS011;1662;49.310;8.134;2024-03-07T02:25:19;48.73;;;29.23;;
3299;SDS011;1662;49.310;8.134;2024-03-07T02:27:47;49.33;;;29.80;;
3299;SDS011;1662;49.310;8.134;2024-03-07T02:30:15;48.33;;;30.47;;
3299;SDS011;1662;49.310;8.134;2024-03-07T02:32:46;42.40;;;28.40;;
3299;SDS011;1662;49.310;8.134;2024-03-07T02:35:19;43.60;;;27.20;;
3299;SDS011;1662;49.310;8.134;2024-03-07T02:37:45;49.90;;;31.97;;
3299;SDS011;1662;49.310;8.134;2024-03-07T02:40:14;41.50;;;27.83;;
3299;SDS011;1662;49.310;8.134;2024-03-07T02:42:39;50.00;;;29.33;;
3299;SDS011;1662;49.310;8.134;2024-03-07T02:45:05;43.50;;;27.17;;
3299;SDS011;1662;49.310;8.134;2024-03-07T02:47:31;50.80;;;28.80;;
3299;SDS011;1662;49.310;8.134;2024-03-07T02:49:57;39.13;;;24.70;;
3299;SDS011;1662;49.310;8.134;2024-03-07T02:52:23;47.47;;;29.10;;
3299;SDS011;1662;49.310;8.134;2024-03-07T02:54:48;46.37;;;27.30;;
3299;SDS011;1662;49.310;8.134;2024-03-07T02:57:14;41.27;;;26.50;;
3299;SDS011;1662;49.310;8.134;2024-03-07T02:59:40;46.90;;;27.60;;
3299;SDS011;1662;49.310;8.134;2024-03-07T03:02:07;41.93;;;27.73;;
3299;SDS011;1662;49.310;8.134;2024-03-07T03:04:34;47.37;;;29.30;;
3299;SDS011;1662;49.310;8.134;2024-03-07T03:07:00;49.10;;;29.57;;
3299;SDS011;1662;49.310;8.134;2024-03-07T03:09:26;39.27;;;26.13;;
3299;SDS011;1662;49.310;8.134;2024-03-07T03:11:54;45.97;;;27.53;;
3299;SDS011;1662;49.310;8.134;2024-03-07T03:14:25;46.30;;;28.57;;
3299;SDS011;1662;49.310;8.134;2024-03-07T03:16:51;46.17;;;27.00;;
3299;SDS011;1662;49.310;8.134;2024-03-07T03:19:21;45.03;;;28.70;;
3299;SDS011;1662;49.310;8.134;2024-03-07T03:21:48;38.37;;;25.27;;
3299;SDS011;1662;49.310;8.134;2024-03-07T03:24:13;43.47;;;29.47;;
3299;SDS011;1662;49.310;8.134;2024-03-07T03:26:44;45.97;;;30.10;;
3299;SDS011;1662;49.310;8.134;2024-03-07T03:29:09;47.43;;;29.67;;
3299;SDS011;1662;49.310;8.134;2024-03-07T03:31:36;39.37;;;26.20;;
3299;SDS011;1662;49.310;8.134;2024-03-07T03:34:02;44.47;;;27.50;;
3299;SDS011;1662;49.310;8.134;2024-03-07T03:36:28;47.90;;;28.70;;
3299;SDS011;1662;49.310;8.134;2024-03-07T03:38:54;45.87;;;27.60;;
3299;SDS011;1662;49.310;8.134;2024-03-07T03:41:20;49.80;;;27.60;;
3299;SDS011;1662;49.310;8.134;2024-03-07T03:43:53;48.83;;;29.60;;
3299;SDS011;1662;49.310;8.134;2024-03-07T03:46:19;46.23;;;28.57;;
3299;SDS011;1662;49.310;8.134;2024-03-07T03:48:44;45.23;;;27.80;;
3299;SDS011;1662;49.310;8.134;2024-03-07T03:51:10;49.43;;;30.70;;
3299;SDS011;1662;49.310;8.134;2024-03-07T03:53:38;47.83;;;28.90;;
3299;SDS011;1662;49.310;8.134;2024-03-07T03:56:06;48.47;;;27.57;;
3299;SDS011;1662;49.310;8.134;2024-03-07T03:58:36;36.80;;;25.43;;
3299;SDS011;1662;49.310;8.134;2024-03-07T04:01:02;47.90;;;30.40;;
3299;SDS011;1662;49.310;8.134;2024-03-07T04:03:28;50.73;;;27.77;;
3299;SDS011;1662;49.310;8.134;2024-03-07T04:05:53;41.67;;;26.43;;
3299;SDS011;1662;49.310;8.134;2024-03-07T04:08:20;41.00;;;27.40;;
3299;SDS011;1662;49.310;8.134;2024-03-07T04:10:45;48.77;;;29.77;;
3299;SDS011;1662;49.310;8.134;2024-03-07T04:13:11;46.90;;;30.10;;
3299;SDS011;1662;49.310;8.134;2024-03-07T04:15:37;47.70;;;30.10;;
3299;SDS011;1662;49.310;8.134;2024-03-07T04:18:02;42.17;;;25.90;;
3299;SDS011;1662;49.310;8.134;2024-03-07T04:20:28;48.20;;;27.90;;
3299;SDS011;1662;49.310;8.134;2024-03-07T04:22:53;45.83;;;27.50;;
3299;SDS011;1662;49.310;8.134;2024-03-07T04:25:20;46.43;;;28.87;;
3299;SDS011;1662;49.310;8.134;2024-03-07T04:27:46;42.97;;;26.43;;
3299;SDS011;1662;49.310;8.134;2024-03-07T04:30:14;42.00;;;26.60;;
3299;SDS011;1662;49.310;8.134;2024-03-07T04:32:41;42.30;;;25.87;;
3299;SDS011;1662;49.310;8.134;2024-03-07T04:35:09;44.20;;;28.20;;
3299;SDS011;1662;49.310;8.134;2024-03-07T04:37:35;46.67;;;27.70;;
3299;SDS011;1662;49.310;8.134;2024-03-07T04:40:05;52.40;;;29.63;;
3299;SDS011;1662;49.310;8.134;2024-03-07T04:42:40;54.10;;;31.37;;
3299;SDS011;1662;49.310;8.134;2024-03-07T04:45:07;56.53;;;30.87;;
3299;SDS011;1662;49.310;8.134;2024-03-07T04:47:38;51.97;;;31.27;;
3299;SDS011;1662;49.310;8.134;2024-03-07T04:50:07;53.40;;;32.30;;
3299;SDS011;1662;49.310;8.134;2024-03-07T04:52:35;46.30;;;27.30;;
3299;SDS011;1662;49.310;8.134;2024-03-07T04:55:02;53.53;;;32.70;;
3299;SDS011;1662;49.310;8.134;2024-03-07T04:57:33;48.97;;;30.23;;
3299;SDS011;1662;49.310;8.134;2024-03-07T05:00:00;53.93;;;34.10;;
3299;SDS011;1662;49.310;8.134;2024-03-07T05:02:26;53.63;;;31.77;;
3299;SDS011;1662;49.310;8.134;2024-03-07T05:04:51;49.47;;;32.17;;
3299;SDS011;1662;49.310;8.134;2024-03-07T05:07:17;52.80;;;34.97;;
3299;SDS011;1662;49.310;8.134;2024-03-07T05:09:48;47.17;;;33.03;;
3299;SDS011;1662;49.310;8.134;2024-03-07T05:12:16;53.83;;;34.60;;
3299;SDS011;1662;49.310;8.134;2024-03-07T05:14:42;59.60;;;36.13;;
3299;SDS011;1662;49.310;8.134;2024-03-07T05:17:07;54.53;;;34.73;;
3299;SDS011;1662;49.310;8.134;2024-03-07T05:19:37;49.20;;;33.80;;
3299;SDS011;1662;49.310;8.134;2024-03-07T05:22:02;50.40;;;33.17;;
3299;SDS011;1662;49.310;8.134;2024-03-07T05:24:30;50.70;;;34.40;;
3299;SDS011;1662;49.310;8.134;2024-03-07T05:26:57;48.73;;;34.07;;
3299;SDS011;1662;49.310;8.134;2024-03-07T05:29:23;58.23;;;36.57;;
3299;SDS011;1662;49.310;8.134;2024-03-07T05:31:49;52.93;;;35.37;;
3299;SDS011;1662;49.310;8.134;2024-03-07T05:34:17;47.47;;;33.77;;
3299;SDS011;1662;49.310;8.134;2024-03-07T05:36:48;52.97;;;34.63;;
3299;SDS011;1662;49.310;8.134;2024-03-07T05:39:16;50.83;;;35.40;;
3299;SDS011;1662;49.310;8.134;2024-03-07T05:41:43;51.97;;;35.13;;
3299;SDS011;1662;49.310;8.134;2024-03-07T05:44:13;46.97;;;32.67;;
3299;SDS011;1662;49.310;8.134;2024-03-07T05:46:39;55.30;;;34.20;;
3299;SDS011;1662;49.310;8.134;2024-03-07T05:49:13;52.00;;;34.30;;
3299;SDS011;1662;49.310;8.134;2024-03-07T05:51:42;51.37;;;36.10;;
3299;SDS011;1662;49.310;8.134;2024-03-07T05:54:10;54.30;;;37.37;;
3299;SDS011;1662;49.310;8.134;2024-03-07T05:56:38;54.17;;;37.47;;
3299;SDS011;1662;49.310;8.134;2024-03-07T05:59:04;48.83;;;34.50;;
3299;SDS011;1662;49.310;8.134;2024-03-07T06:01:32;48.72;;;33.80;;
3299;SDS011;1662;49.310;8.134;2024-03-07T06:03:59;47.67;;;32.70;;
3299;SDS011;1662;49.310;8.134;2024-03-07T06:06:25;50.47;;;32.83;;
3299;SDS011;1662;49.310;8.134;2024-03-07T06:08:52;51.17;;;34.67;;
3299;SDS011;1662;49.310;8.134;2024-03-07T06:11:18;48.33;;;31.27;;
3299;SDS011;1662;49.310;8.134;2024-03-07T06:13:49;53.53;;;33.43;;
3299;SDS011;1662;49.310;8.134;2024-03-07T06:16:15;50.47;;;33.60;;
3299;SDS011;1662;49.310;8.134;2024-03-07T06:18:41;50.37;;;35.00;;
3299;SDS011;1662;49.310;8.134;2024-03-07T06:21:07;50.80;;;32.33;;
3299;SDS011;1662;49.310;8.134;2024-03-07T06:23:33;51.80;;;33.70;;
3299;SDS011;1662;49.310;8.134;2024-03-07T06:26:01;43.43;;;32.40;;
3299;SDS011;1662;49.310;8.134;2024-03-07T06:28:37;59.50;;;32.10;;
3299;SDS011;1662;49.310;8.134;2024-03-07T06:31:04;47.55;;;31.25;;
3299;SDS011;1662;49.310;8.134;2024-03-07T06:33:32;45.00;;;32.60;;
3299;SDS011;1662;49.310;8.134;2024-03-07T06:36:02;48.33;;;32.07;;
3299;SDS011;1662;49.310;8.134;2024-03-07T06:38:28;46.30;;;29.70;;
3299;SDS011;1662;49.310;8.134;2024-03-07T06:40:53;41.63;;;28.87;;
3299;SDS011;1662;49.310;8.134;2024-03-07T06:43:19;47.47;;;32.70;;
3299;SDS011;1662;49.310;8.134;2024-03-07T06:45:44;48.37;;;31.60;;
3299;SDS011;1662;49.310;8.134;2024-03-07T06:48:11;43.90;;;30.10;;
3299;SDS011;1662;49.310;8.134;2024-03-07T06:50:39;44.17;;;29.67;;
3299;SDS011;1662;49.310;8.134;2024-03-07T06:53:05;38.70;;;26.60;;
3299;SDS011;1662;49.310;8.134;2024-03-07T06:55:34;43.37;;;29.23;;
3299;SDS011;1662;49.310;8.134;2024-03-07T06:58:02;43.93;;;30.97;;
3299;SDS011;1662;49.310;8.134;2024-03-07T07:00:32;43.37;;;31.40;;
3299;SDS011;1662;49.310;8.134;2024-03-07T07:03:01;46.37;;;29.97;;
3299;SDS011;1662;49.310;8.134;2024-03-07T07:05:29;41.20;;;29.87;;
3299;SDS011;1662;49.310;8.134;2024-03-07T07:07:55;38.00;;;27.70;;
3299;SDS011;1662;49.310;8.134;2024-03-07T07:10:20;40.13;;;27.87;;
3299;SDS011;1662;49.310;8.134;2024-03-07T07:12:49;40.17;;;29.00;;
3299;SDS011;1662;49.310;8.134;2024-03-07T07:15:16;40.30;;;28.03;;
3299;SDS011;1662;49.310;8.134;2024-03-07T07:17:43;38.93;;;28.73;;
3299;SDS011;1662;49.310;8.134;2024-03-07T07:20:14;35.00;;;26.70;;
3299;SDS011;1662;49.310;8.134;2024-03-07T07:22:45;36.30;;;27.50;;
3299;SDS011;1662;49.310;8.134;2024-03-07T07:25:13;34.97;;;24.50;;
3299;SDS011;1662;49.310;8.134;2024-03-07T07:27:46;36.90;;;26.87;;
3299;SDS011;1662;49.310;8.134;2024-03-07T07:30:16;38.87;;;26.73;;
3299;SDS011;1662;49.310;8.134;2024-03-07T07:32:43;44.00;;;27.87;;
3299;SDS011;1662;49.310;8.134;2024-03-07T07:35:10;35.90;;;27.73;;
3299;SDS011;1662;49.310;8.134;2024-03-07T07:37:40;42.60;;;27.60;;
3299;SDS011;1662;49.310;8.134;2024-03-07T07:40:10;37.70;;;27.07;;
3299;SDS011;1662;49.310;8.134;2024-03-07T07:42:43;35.40;;;27.10;;
3299;SDS011;1662;49.310;8.134;2024-03-07T07:45:11;37.07;;;26.43;;
3299;SDS011;1662;49.310;8.134;2024-03-07T07:47:39;36.77;;;26.10;;
3299;SDS011;1662;49.310;8.134;2024-03-07T07:50:09;44.10;;;29.13;;
3299;SDS011;1662;49.310;8.134;2024-03-07T07:52:43;39.30;;;28.60;;
3299;SDS011;1662;49.310;8.134;2024-03-07T07:55:11;36.90;;;25.13;;
3299;SDS011;1662;49.310;8.134;2024-03-07T07:57:43;44.53;;;30.80;;
3299;SDS011;1662;49.310;8.134;2024-03-07T08:00:16;41.63;;;29.80;;
3299;SDS011;1662;49.310;8.134;2024-03-07T08:03:09;42.23;;;28.90;;
3299;SDS011;1662;49.310;8.134;2024-03-07T08:05:35;45.80;;;29.77;;
3299;SDS011;1662;49.310;8.134;2024-03-07T08:08:03;41.20;;;29.50;;
3299;SDS011;1662;49.310;8.134;2024-03-07T08:10:38;44.60;;;30.90;;
3299;SDS011;1662;49.310;8.134;2024-03-07T08:13:06;46.80;;;29.07;;
3299;SDS011;1662;49.310;8.134;2024-03-07T08:15:35;44.83;;;29.37;;
3299;SDS011;1662;49.310;8.134;2024-03-07T08:18:01;42.87;;;30.47;;
3299;SDS011;1662;49.310;8.134;2024-03-07T08:20:33;52.10;;;32.17;;
3299;SDS011;1662;49.310;8.134;2024-03-07T08:22:59;39.33;;;27.77;;
3299;SDS011;1662;49.310;8.134;2024-03-07T08:25:26;41.43;;;28.67;;
3299;SDS011;1662;49.310;8.134;2024-03-07T08:27:54;46.07;;;28.40;;
3299;SDS011;1662;49.310;8.134;2024-03-07T08:30:21;38.20;;;27.27;;
3299;SDS011;1662;49.310;8.134;2024-03-07T08:32:53;39.33;;;27.50;;
3299;SDS011;1662;49.310;8.134;2024-03-07T08:35:20;38.70;;;27.10;;
3299;SDS011;1662;49.310;8.134;2024-03-07T08:37:47;40.47;;;29.50;;
3299;SDS011;1662;49.310;8.134;2024-03-07T08:40:21;42.53;;;27.90;;
3299;SDS011;1662;49.310;8.134;2024-03-07T08:42:48;44.60;;;28.60;;
3299;SDS011;1662;49.310;8.134;2024-03-07T08:45:19;35.67;;;24.90;;
3299;SDS011;1662;49.310;8.134;2024-03-07T08:47:49;38.87;;;26.20;;
3299;SDS011;1662;49.310;8.134;2024-03-07T08:50:15;34.90;;;25.70;;
3299;SDS011;1662;49.310;8.134;2024-03-07T08:52:43;39.10;;;27.17;;
3299;SDS011;1662;49.310;8.134;2024-03-07T08:55:09;35.87;;;26.10;;
3299;SDS011;1662;49.310;8.134;2024-03-07T08:57:39;35.63;;;24.63;;
3299;SDS011;1662;49.310;8.134;2024-03-07T09:00:06;33.87;;;25.27;;
3299;SDS011;1662;49.310;8.134;2024-03-07T09:02:42;33.07;;;24.57;;
3299;SDS011;1662;49.310;8.134;2024-03-07T09:05:07;31.00;;;24.67;;
3299;SDS011;1662;49.310;8.134;2024-03-07T09:07:35;33.00;;;25.10;;
3299;SDS011;1662;49.310;8.134;2024-03-07T09:10:01;33.47;;;24.43;;
3299;SDS011;1662;49.310;8.134;2024-03-07T09:12:27;34.70;;;25.03;;
3299;SDS011;1662;49.310;8.134;2024-03-07T09:14:52;33.93;;;22.83;;
3299;SDS011;1662;49.310;8.134;2024-03-07T09:17:19;32.07;;;23.43;;
3299;SDS011;1662;49.310;8.134;2024-03-07T09:19:45;37.30;;;23.70;;
3299;SDS011;1662;49.310;8.134;2024-03-07T09:22:11;33.90;;;22.63;;
3299;SDS011;1662;49.310;8.134;2024-03-07T09:24:36;29.97;;;22.77;;
3299;SDS011;1662;49.310;8.134;2024-03-07T09:27:05;30.60;;;22.63;;
3299;SDS011;1662;49.310;8.134;2024-03-07T09:29:31;34.97;;;23.57;;
3299;SDS011;1662;49.310;8.134;2024-03-07T09:31:59;29.77;;;22.53;;
3299;SDS011;1662;49.310;8.134;2024-03-07T09:34:25;30.87;;;23.40;;
3299;SDS011;1662;49.310;8.134;2024-03-07T09:36:51;33.37;;;24.30;;
3299;SDS011;1662;49.310;8.134;2024-03-07T09:39:17;28.20;;;22.13;;
3299;SDS011;1662;49.310;8.134;2024-03-07T09:41:43;27.63;;;21.87;;
3299;SDS011;1662;49.310;8.134;2024-03-07T09:44:10;28.60;;;22.57;;
3299;SDS011;1662;49.310;8.134;2024-03-07T09:46:40;32.97;;;23.17;;
3299;SDS011;1662;49.310;8.134;2024-03-07T09:49:06;26.20;;;20.20;;
3299;SDS011;1662;49.310;8.134;2024-03-07T09:51:33;27.40;;;21.77;;
3299;SDS011;1662;49.310;8.134;2024-03-07T09:54:00;27.53;;;21.77;;
3299;SDS011;1662;49.310;8.134;2024-03-07T09:56:27;25.30;;;21.17;;
3299;SDS011;1662;49.310;8.134;2024-03-07T09:58:57;26.70;;;20.73;;
3299;SDS011;1662;49.310;8.134;2024-03-07T10:01:27;26.00;;;19.07;;
3299;SDS011;1662;49.310;8.134;2024-03-07T10:03:57;25.87;;;20.50;;
3299;SDS011;1662;49.310;8.134;2024-03-07T10:06:24;25.03;;;19.50;;
3299;SDS011;1662;49.310;8.134;2024-03-07T10:08:52;25.93;;;19.83;;
3299;SDS011;1662;49.310;8.134;2024-03-07T10:11:18;21.53;;;18.80;;
3299;SDS011;1662;49.310;8.134;2024-03-07T10:13:43;21.70;;;17.10;;
3299;SDS011;1662;49.310;8.134;2024-03-07T10:16:14;22.70;;;17.43;;
3299;SDS011;1662;49.310;8.134;2024-03-07T10:18:41;22.17;;;18.00;;
3299;SDS011;1662;49.310;8.134;2024-03-07T10:21:07;23.13;;;18.83;;
3299;SDS011;1662;49.310;8.134;2024-03-07T10:23:37;22.53;;;18.10;;
3299;SDS011;1662;49.310;8.134;2024-03-07T10:26:04;20.80;;;16.63;;
3299;SDS011;1662;49.310;8.134;2024-03-07T10:28:30;19.43;;;16.33;;
3299;SDS011;1662;49.310;8.134;2024-03-07T10:30:58;22.83;;;17.93;;
3299;SDS011;1662;49.310;8.134;2024-03-07T10:33:28;22.60;;;16.80;;
3299;SDS011;1662;49.310;8.134;2024-03-07T10:35:58;24.13;;;18.77;;
3299;SDS011;1662;49.310;8.134;2024-03-07T10:38:26;23.60;;;18.00;;
3299;SDS011;1662;49.310;8.134;2024-03-07T10:40:55;22.10;;;16.90;;
3299;SDS011;1662;49.310;8.134;2024-03-07T10:43:21;21.23;;;17.10;;
3299;SDS011;1662;49.310;8.134;2024-03-07T10:45:50;19.80;;;16.97;;
3299;SDS011;1662;49.310;8.134;2024-03-07T10:48:21;19.70;;;17.30;;
3299;SDS011;1662;49.310;8.134;2024-03-07T10:53:46;20.60;;;16.87;;
3299;SDS011;1662;49.310;8.134;2024-03-07T10:59:33;22.90;;;17.23;;
3299;SDS011;1662;49.310;8.134;2024-03-07T11:04:52;26.87;;;18.70;;
3299;SDS011;1662;49.310;8.134;2024-03-07T11:07:22;26.83;;;19.10;;
3299;SDS011;1662;49.310;8.134;2024-03-07T11:09:52;26.03;;;19.13;;
3299;SDS011;1662;49.310;8.134;2024-03-07T11:12:26;23.70;;;17.93;;
3299;SDS011;1662;49.310;8.134;2024-03-07T11:14:53;23.53;;;16.70;;
3299;SDS011;1662;49.310;8.134;2024-03-07T11:17:21;27.10;;;17.83;;
3299;SDS011;1662;49.310;8.134;2024-03-07T11:19:47;25.53;;;17.27;;
3299;SDS011;1662;49.310;8.134;2024-03-07T11:22:32;24.53;;;17.27;;
3299;SDS011;1662;49.310;8.134;2024-03-07T11:25:02;20.70;;;15.60;;
3299;SDS011;1662;49.310;8.134;2024-03-07T11:27:39;26.17;;;17.90;;
3299;SDS011;1662;49.310;8.134;2024-03-07T11:30:08;24.50;;;17.87;;
3299;SDS011;1662;49.310;8.134;2024-03-07T11:32:37;25.97;;;18.70;;
3299;SDS011;1662;49.310;8.134;2024-03-07T11:35:04;24.10;;;16.77;;
3299;SDS011;1662;49.310;8.134;2024-03-07T11:37:39;29.30;;;18.73;;
3299;SDS011;1662;49.310;8.134;2024-03-07T11:40:11;27.73;;;18.43;;
3299;SDS011;1662;49.310;8.134;2024-03-07T11:42:46;31.00;;;19.13;;
3299;SDS011;1662;49.310;8.134;2024-03-07T11:45:16;24.83;;;17.60;;
3299;SDS011;1662;49.310;8.134;2024-03-07T11:47:58;25.23;;;17.83;;
3299;SDS011;1662;49.310;8.134;2024-03-07T11:50:28;26.20;;;18.17;;
3299;SDS011;1662;49.310;8.134;2024-03-07T11:52:59;27.07;;;18.63;;
3299;SDS011;1662;49.310;8.134;2024-03-07T11:55:26;28.13;;;19.67;;
3299;SDS011;1662;49.310;8.134;2024-03-07T11:57:53;26.80;;;19.07;;
3299;SDS011;1662;49.310;8.134;2024-03-07T12:00:19;20.63;;;16.13;;
3299;SDS011;1662;49.310;8.134;2024-03-07T12:02:53;24.60;;;19.93;;
3299;SDS011;1662;49.310;8.134;2024-03-07T12:05:21;30.57;;;21.27;;
3299;SDS011;1662;49.310;8.134;2024-03-07T12:07:47;24.40;;;17.80;;
3299;SDS011;1662;49.310;8.134;2024-03-07T12:10:14;24.83;;;18.10;;
3299;SDS011;1662;49.310;8.134;2024-03-07T12:12:40;30.33;;;19.33;;
3299;SDS011;1662;49.310;8.134;2024-03-07T12:15:08;23.53;;;17.70;;
3299;SDS011;1662;49.310;8.134;2024-03-07T12:17:44;26.40;;;19.20;;
3299;SDS011;1662;49.310;8.134;2024-03-07T12:20:12;27.80;;;18.13;;
3299;SDS011;1662;49.310;8.134;2024-03-07T12:22:50;24.00;;;18.63;;
3299;SDS011;1662;49.310;8.134;2024-03-07T12:25:19;28.67;;;17.97;;
3299;SDS011;1662;49.310;8.134;2024-03-07T12:30:30;25.80;;;18.13;;
3299;SDS011;1662;49.310;8.134;2024-03-07T12:32:58;28.07;;;19.03;;
3299;SDS011;1662;49.310;8.134;2024-03-07T12:35:32;27.73;;;19.30;;
3299;SDS011;1662;49.310;8.134;2024-03-07T12:37:58;29.03;;;20.20;;
3299;SDS011;1662;49.310;8.134;2024-03-07T12:40:25;31.37;;;19.97;;
3299;SDS011;1662;49.310;8.134;2024-03-07T12:42:54;27.13;;;18.77;;
3299;SDS011;1662;49.310;8.134;2024-03-07T12:45:20;27.40;;;19.07;;
3299;SDS011;1662;49.310;8.134;2024-03-07T12:47:52;25.00;;;19.03;;
3299;SDS011;1662;49.310;8.134;2024-03-07T12:50:20;30.40;;;20.43;;
3299;SDS011;1662;49.310;8.134;2024-03-07T12:52:49;27.53;;;20.00;;
3299;SDS011;1662;49.310;8.134;2024-03-07T12:55:15;28.33;;;18.83;;
3299;SDS011;1662;49.310;8.134;2024-03-07T12:57:46;27.93;;;19.43;;
3299;SDS011;1662;49.310;8.134;2024-03-07T13:00:12;28.00;;;18.13;;
3299;SDS011;1662;49.310;8.134;2024-03-07T13:02:45;29.73;;;20.20;;
3299;SDS011;1662;49.310;8.134;2024-03-07T13:05:14;24.43;;;19.97;;
3299;SDS011;1662;49.310;8.134;2024-03-07T13:07:51;31.43;;;19.90;;
3299;SDS011;1662;49.310;8.134;2024-03-07T13:10:17;27.27;;;19.57;;
3299;SDS011;1662;49.310;8.134;2024-03-07T13:12:46;28.70;;;20.70;;
3299;SDS011;1662;49.310;8.134;2024-03-07T13:15:16;27.23;;;19.77;;
3299;SDS011;1662;49.310;8.134;2024-03-07T13:17:42;26.50;;;19.67;;
3299;SDS011;1662;49.310;8.134;2024-03-07T13:20:11;29.70;;;20.37;;
3299;SDS011;1662;49.310;8.134;2024-03-07T13:22:39;25.10;;;18.07;;
3299;SDS011;1662;49.310;8.134;2024-03-07T13:25:19;28.77;;;19.50;;
3299;SDS011;1662;49.310;8.134;2024-03-07T13:27:51;29.40;;;19.30;;
3299;SDS011;1662;49.310;8.134;2024-03-07T13:30:20;29.70;;;19.90;;
3299;SDS011;1662;49.310;8.134;2024-03-07T13:32:52;27.20;;;19.00;;
3299;SDS011;1662;49.310;8.134;2024-03-07T13:35:19;26.53;;;19.20;;
3299;SDS011;1662;49.310;8.134;2024-03-07T13:37:46;28.40;;;19.90;;
3299;SDS011;1662;49.310;8.134;2024-03-07T13:40:12;29.90;;;20.50;;
3299;SDS011;1662;49.310;8.134;2024-03-07T13:45:24;28.67;;;18.97;;
3299;SDS011;1662;49.310;8.134;2024-03-07T13:47:52;24.43;;;18.17;;
3299;SDS011;1662;49.310;8.134;2024-03-07T13:50:20;24.90;;;19.37;;
3299;SDS011;1662;49.310;8.134;2024-03-07T13:52:53;26.30;;;17.03;;
3299;SDS011;1662;49.310;8.134;2024-03-07T14:10:13;30.00;;;20.43;;
3299;SDS011;1662;49.310;8.134;2024-03-07T14:12:50;28.53;;;19.60;;
3299;SDS011;1662;49.310;8.134;2024-03-07T14:32:37;24.63;;;19.33;;
3299;SDS011;1662;49.310;8.134;2024-03-07T14:38:01;25.80;;;19.17;;
3299;SDS011;1662;49.310;8.134;2024-03-07T14:40:26;23.27;;;18.83;;
3299;SDS011;1662;49.310;8.134;2024-03-07T14:42:51;26.70;;;19.80;;
3299;SDS011;1662;49.310;8.134;2024-03-07T14:45:23;31.33;;;19.37;;
3299;SDS011;1662;49.310;8.134;2024-03-07T14:47:55;27.70;;;20.50;;
3299;SDS011;1662;49.310;8.134;2024-03-07T14:50:21;25.30;;;20.13;;
3299;SDS011;1662;49.310;8.134;2024-03-07T14:52:48;25.90;;;20.07;;
3299;SDS011;1662;49.310;8.134;2024-03-07T14:55:14;24.43;;;19.40;;
3299;SDS011;1662;49.310;8.134;2024-03-07T14:57:40;27.43;;;19.43;;
3299;SDS011;1662;49.310;8.134;2024-03-07T15:00:08;27.17;;;21.17;;
3299;SDS011;1662;49.310;8.134;2024-03-07T15:02:47;25.40;;;18.73;;
3299;SDS011;1662;49.310;8.134;2024-03-07T15:05:14;24.23;;;19.00;;
3299;SDS011;1662;49.310;8.134;2024-03-07T15:07:42;26.70;;;19.53;;
3299;SDS011;1662;49.310;8.134;2024-03-07T15:10:10;26.37;;;18.73;;
3299;SDS011;1662;49.310;8.134;2024-03-07T15:12:44;23.00;;;19.27;;
3299;SDS011;1662;49.310;8.134;2024-03-07T15:15:16;24.90;;;16.93;;
3299;SDS011;1662;49.310;8.134;2024-03-07T15:17:44;21.43;;;17.27;;
3299;SDS011;1662;49.310;8.134;2024-03-07T15:20:10;22.83;;;16.80;;
3299;SDS011;1662;49.310;8.134;2024-03-07T15:22:55;21.57;;;17.33;;
3299;SDS011;1662;49.310;8.134;2024-03-07T15:25:21;23.73;;;17.87;;
3299;SDS011;1662;49.310;8.134;2024-03-07T15:27:52;21.17;;;17.87;;
3299;SDS011;1662;49.310;8.134;2024-03-07T15:30:21;23.40;;;17.50;;
3299;SDS011;1662;49.310;8.134;2024-03-07T15:32:49;20.20;;;16.30;;
3299;SDS011;1662;49.310;8.134;2024-03-07T15:35:19;23.53;;;18.03;;
3299;SDS011;1662;49.310;8.134;2024-03-07T15:37:48;22.20;;;15.93;;
3299;SDS011;1662;49.310;8.134;2024-03-07T15:40:15;22.07;;;18.70;;
3299;SDS011;1662;49.310;8.134;2024-03-07T15:42:42;21.97;;;17.10;;